Time;durP1;ratioP1;P1;durP2;ratioP2;P2;SDS_P1;SDS_P2;PMS_P1;PMS_P2;Temp;Humidity;BMP_temperature;BMP_pressure;BME280_temperature;BME280_humidity;BME280_pressure;Samples;Min_cycle;Max_cycle;Signal;HPM_P1;HPM_P2
2022/01/16 00:00:25;;;;;;;0.00;0.00;;;1.50;94.20;;;;;;4179416;28;20424;-54
2022/01/16 00:05:22;;;;;;;0.00;0.00;;;1.40;94.40;;;;;;4179713;28;20045;-54
2022/01/16 00:07:44;;;;;;;0.00;0.00;;;1.50;94.60;;;;;;4179878;28;20463;-53
2022/01/16 00:10:07;;;;;;;0.00;0.00;;;1.50;94.50;;;;;;4179717;28;20062;-57
2022/01/16 00:12:29;;;;;;;0.00;0.00;;;1.50;94.40;;;;;;4165373;28;20183;-56
2022/01/16 00:14:52;;;;;;;0.00;0.00;;;1.50;94.50;;;;;;4182797;28;20094;-52
2022/01/16 00:17:14;;;;;;;0.00;0.00;;;1.40;94.60;;;;;;4179654;28;20414;-56
2022/01/16 00:19:36;;;;;;;0.00;0.00;;;1.30;94.80;;;;;;4193414;28;20052;-55
2022/01/16 00:22:00;;;;;;;0.00;0.00;;;1.20;94.90;;;;;;4179187;28;20064;-56
2022/01/16 00:24:22;;;;;;;0.00;0.00;;;1.20;95.20;;;;;;4193066;28;20469;-54
2022/01/16 00:26:44;;;;;;;0.00;0.00;;;1.30;95.10;;;;;;4179570;28;20410;-55
2022/01/16 00:29:09;;;;;;;0.00;0.00;;;1.20;95.10;;;;;;4165851;28;20060;-58
2022/01/16 00:31:31;;;;;;;0.00;0.00;;;1.20;95.30;;;;;;4178892;28;20128;-55
2022/01/16 00:33:54;;;;;;;0.00;0.00;;;1.10;95.20;;;;;;4178979;28;20130;-56
2022/01/16 00:36:19;;;;;;;0.00;0.00;;;1.10;95.20;;;;;;4178809;28;20045;-57
2022/01/16 00:38:45;;;;;;;0.00;0.00;;;1.10;95.10;;;;;;4193040;28;20158;-55
2022/01/16 00:41:07;;;;;;;0.00;0.00;;;1.10;95.00;;;;;;4178992;28;20550;-55
2022/01/16 00:43:29;;;;;;;0.00;0.00;;;1.00;94.80;;;;;;4179066;28;20045;-51
2022/01/16 00:45:52;;;;;;;0.00;0.00;;;0.90;95.00;;;;;;4179020;28;20049;-47
2022/01/16 00:48:14;;;;;;;0.00;0.00;;;0.80;95.10;;;;;;4178659;28;20083;-59
2022/01/16 00:50:37;;;;;;;0.00;0.00;;;0.70;95.00;;;;;;4178898;28;20048;-56
2022/01/16 00:52:59;;;;;;;0.00;0.00;;;0.60;95.20;;;;;;4178990;28;20053;-60
2022/01/16 00:55:22;;;;;;;0.00;0.00;;;0.70;95.40;;;;;;4179041;28;20057;-52
2022/01/16 00:57:44;;;;;;;0.00;0.00;;;0.80;95.30;;;;;;4178983;28;20048;-56
2022/01/16 01:00:07;;;;;;;0.00;0.00;;;0.80;95.20;;;;;;4178931;28;20467;-55
2022/01/16 01:02:30;;;;;;;0.00;0.00;;;0.80;95.10;;;;;;4178295;28;20041;-56
2022/01/16 01:04:52;;;;;;;0.00;0.00;;;0.70;95.10;;;;;;4178641;28;20048;-54
2022/01/16 01:07:16;;;;;;;0.00;0.00;;;0.60;95.10;;;;;;4179696;28;20048;-57
2022/01/16 01:09:43;;;;;;;0.00;0.00;;;0.50;95.10;;;;;;4179757;28;20071;-52
2022/01/16 01:12:06;;;;;;;0.00;0.00;;;0.50;95.40;;;;;;4170831;28;20059;-60
2022/01/16 01:14:42;;;;;;;0.00;0.00;;;0.40;95.50;;;;;;4176485;28;22168;-58
2022/01/16 01:17:09;;;;;;;0.00;0.00;;;0.40;95.30;;;;;;4163063;28;20482;-53
2022/01/16 01:19:46;;;;;;;0.00;0.00;;;0.50;95.20;;;;;;4162092;28;20506;-48
2022/01/16 01:22:19;;;;;;;0.00;0.00;;;0.50;95.20;;;;;;4159273;28;20119;-52
2022/01/16 01:24:43;;;;;;;0.00;0.00;;;0.50;95.30;;;;;;4179531;28;20076;-49
2022/01/16 01:27:23;;;;;;;0.00;0.00;;;0.60;95.30;;;;;;4179632;28;20418;-53
2022/01/16 01:30:00;;;;;;;0.00;0.00;;;0.70;95.30;;;;;;4179383;28;20082;-47
2022/01/16 01:32:29;;;;;;;0.00;0.00;;;0.90;95.20;;;;;;4160000;28;20068;-51
2022/01/16 01:35:07;;;;;;;0.00;0.00;;;1.10;94.90;;;;;;4174121;28;20107;-52
2022/01/16 01:37:29;;;;;;;0.00;0.00;;;0.90;94.50;;;;;;4162868;28;20107;-58
2022/01/16 01:40:00;;;;;;;0.00;0.00;;;0.80;94.60;;;;;;4162880;28;20088;-54
2022/01/16 01:42:48;;;;;;;0.00;0.00;;;0.70;94.80;;;;;;4162516;28;20049;-55
2022/01/16 01:51:46;;;;;;;0.00;0.00;;;1.10;94.80;;;;;;4146233;28;20124;-60
2022/01/16 01:54:11;;;;;;;0.00;0.00;;;1.00;94.80;;;;;;4162421;28;20045;-59
2022/01/16 01:56:38;;;;;;;0.00;0.00;;;0.90;94.70;;;;;;4161463;28;20487;-50
2022/01/16 01:59:04;;;;;;;0.00;0.00;;;0.90;95.00;;;;;;4161778;28;20041;-57
2022/01/16 02:01:29;;;;;;;0.00;0.00;;;1.10;95.00;;;;;;4165567;28;20048;-53
2022/01/16 02:03:54;;;;;;;0.00;0.00;;;1.20;94.40;;;;;;4179161;28;20044;-61
2022/01/16 02:06:28;;;;;;;0.00;0.00;;;1.30;94.60;;;;;;4178621;28;20131;-48
2022/01/16 02:09:00;;;;;;;0.00;0.00;;;1.40;94.40;;;;;;4179034;28;20049;-59
2022/01/16 02:11:31;;;;;;;0.00;0.00;;;1.40;94.60;;;;;;4177680;28;20049;-54
2022/01/16 02:34:31;;;;;;;0.00;0.00;;;1.40;94.40;;;;;;4147022;28;20527;-49
2022/01/16 02:35:47;;;;;;;0.00;0.00;;;1.30;94.20;;;;;;4161223;28;20068;-54
2022/01/16 02:38:11;;;;;;;0.00;0.00;;;1.20;94.20;;;;;;4161351;28;20491;-58
2022/01/16 02:40:35;;;;;;;0.00;0.00;;;1.20;94.50;;;;;;4160636;28;20046;-59
2022/01/16 02:43:02;;;;;;;0.00;0.00;;;1.30;94.50;;;;;;4161281;28;20530;-59
2022/01/16 02:45:29;;;;;;;0.00;0.00;;;1.50;94.30;;;;;;4161110;28;20514;-56
2022/01/16 02:47:52;;;;;;;0.00;0.00;;;1.40;94.10;;;;;;4161147;28;20042;-52
2022/01/16 02:50:17;;;;;;;0.00;0.00;;;1.30;93.90;;;;;;4160980;28;20050;-54
2022/01/16 02:52:39;;;;;;;0.00;0.00;;;1.00;94.00;;;;;;4161225;28;20129;-55
2022/01/16 02:55:02;;;;;;;0.00;0.00;;;0.80;94.30;;;;;;4161118;28;20627;-59
2022/01/16 02:57:24;;;;;;;0.00;0.00;;;0.80;94.60;;;;;;4151445;28;20571;-55
2022/01/16 02:59:52;;;;;;;0.00;0.00;;;0.80;94.80;;;;;;4144771;28;20070;-54
2022/01/16 03:02:17;;;;;;;0.00;0.00;;;1.00;94.70;;;;;;4144730;28;20142;-54
2022/01/16 03:04:39;;;;;;;0.00;0.00;;;1.10;94.40;;;;;;4147678;28;20136;-52
2022/01/16 03:07:04;;;;;;;0.00;0.00;;;0.90;94.20;;;;;;4165792;28;20041;-56
2022/01/16 03:09:36;;;;;;;0.00;0.00;;;0.90;94.40;;;;;;4179983;28;20052;-55
2022/01/16 03:12:01;;;;;;;0.00;0.00;;;0.90;94.50;;;;;;4164013;28;20115;-55
2022/01/16 03:14:24;;;;;;;0.00;0.00;;;0.90;94.40;;;;;;4163649;28;20128;-59
2022/01/16 03:16:50;;;;;;;0.00;0.00;;;0.80;94.40;;;;;;4164095;28;20502;-54
2022/01/16 03:22:04;;;;;;;0.00;0.00;;;0.80;94.60;;;;;;4163542;28;20213;-55
2022/01/16 03:24:29;;;;;;;0.00;0.00;;;0.80;94.60;;;;;;4161045;28;20100;-55
2022/01/16 03:26:56;;;;;;;0.00;0.00;;;0.90;94.70;;;;;;4153073;28;20136;-53
2022/01/16 03:29:19;;;;;;;0.00;0.00;;;1.00;94.50;;;;;;4163750;28;20136;-53
2022/01/16 03:31:41;;;;;;;0.00;0.00;;;1.10;94.40;;;;;;4163447;28;20076;-58
2022/01/16 03:34:04;;;;;;;0.00;0.00;;;1.10;94.40;;;;;;4163569;28;20080;-58
2022/01/16 03:36:26;;;;;;;0.00;0.00;;;1.20;94.40;;;;;;4149724;28;20562;-51
2022/01/16 03:38:49;;;;;;;0.00;0.00;;;1.20;94.60;;;;;;4163790;28;20069;-50
2022/01/16 03:41:11;;;;;;;0.00;0.00;;;1.20;94.20;;;;;;4163487;28;20080;-55
2022/01/16 03:43:35;;;;;;;0.00;0.00;;;1.10;94.20;;;;;;4163667;28;20055;-59
2022/01/16 03:45:57;;;;;;;0.00;0.00;;;1.10;94.20;;;;;;4149902;28;20060;-52
2022/01/16 03:48:20;;;;;;;0.00;0.00;;;1.00;94.20;;;;;;4163284;28;20806;-52
2022/01/16 03:50:43;;;;;;;0.00;0.00;;;1.00;94.20;;;;;;4159160;28;20041;-56
2022/01/16 03:53:05;;;;;;;0.00;0.00;;;1.10;94.40;;;;;;4154556;28;20100;-55
2022/01/16 03:55:27;;;;;;;0.00;0.00;;;1.10;94.40;;;;;;4163572;28;20473;-52
2022/01/16 03:57:50;;;;;;;0.00;0.00;;;1.20;94.40;;;;;;4163406;28;20073;-54
2022/01/16 04:00:13;;;;;;;0.00;0.00;;;1.10;94.40;;;;;;4162897;28;20133;-56
2022/01/16 04:02:35;;;;;;;0.00;0.00;;;1.10;94.40;;;;;;4163272;28;20593;-55
2022/01/16 04:04:57;;;;;;;0.00;0.00;;;1.00;94.30;;;;;;4163314;28;20053;-59
2022/01/16 04:07:26;;;;;;;0.00;0.00;;;1.00;94.70;;;;;;4163168;28;20169;-56
2022/01/16 04:09:49;;;;;;;0.00;0.00;;;1.00;94.60;;;;;;4149919;28;20074;-58
2022/01/16 04:12:13;;;;;;;0.00;0.00;;;1.10;94.60;;;;;;4162512;28;20384;-58
2022/01/16 04:17:08;;;;;;;0.00;0.00;;;0.80;94.30;;;;;;4154260;28;20046;-55
2022/01/16 04:19:30;;;;;;;0.00;0.00;;;0.70;94.60;;;;;;4157446;28;20056;-56
2022/01/16 04:21:52;;;;;;;0.00;0.00;;;0.90;94.80;;;;;;4162745;28;20065;-56
2022/01/16 04:24:15;;;;;;;0.00;0.00;;;0.90;94.60;;;;;;4176610;28;20045;-53
2022/01/16 04:26:37;;;;;;;0.00;0.00;;;0.70;94.50;;;;;;4162932;28;20073;-52
2022/01/16 04:28:59;;;;;;;0.00;0.00;;;0.60;94.90;;;;;;4176980;28;20079;-51
2022/01/16 04:31:23;;;;;;;0.00;0.00;;;0.70;94.80;;;;;;4176415;28;20041;-53
2022/01/16 04:33:45;;;;;;;0.00;0.00;;;0.80;95.00;;;;;;4149817;28;20057;-52
2022/01/16 04:36:08;;;;;;;0.00;0.00;;;0.80;94.90;;;;;;4175988;28;20076;-52
2022/01/16 04:38:33;;;;;;;0.00;0.00;;;0.90;94.70;;;;;;4162535;28;20052;-55
2022/01/16 04:43:47;;;;;;;0.00;0.00;;;0.90;94.80;;;;;;4162633;28;20055;-58
2022/01/16 04:46:10;;;;;;;0.00;0.00;;;1.00;94.60;;;;;;4162527;28;20046;-60
2022/01/16 04:48:33;;;;;;;0.00;0.00;;;0.80;94.20;;;;;;4159271;28;20109;-60
2022/01/16 04:50:55;;;;;;;0.00;0.00;;;0.70;94.20;;;;;;4179917;28;20452;-60
2022/01/16 04:53:17;;;;;;;0.00;0.00;;;0.60;94.50;;;;;;4176628;28;20136;-59
2022/01/16 04:55:40;;;;;;;0.00;0.00;;;0.70;94.80;;;;;;4162491;28;20053;-59
2022/01/16 04:58:02;;;;;;;0.00;0.00;;;0.70;94.70;;;;;;4176258;28;20058;-59
2022/01/16 05:00:25;;;;;;;0.00;0.00;;;0.80;94.60;;;;;;4161906;28;20060;-58
2022/01/16 05:02:48;;;;;;;0.00;0.00;;;0.90;94.60;;;;;;4161992;28;20049;-50
2022/01/16 05:05:11;;;;;;;0.00;0.00;;;1.10;94.50;;;;;;4162306;28;20049;-60
2022/01/16 05:07:33;;;;;;;0.00;0.00;;;1.20;94.30;;;;;;4148805;28;20149;-59
2022/01/16 05:09:55;;;;;;;0.00;0.00;;;1.30;94.10;;;;;;4162137;28;20060;-55
2022/01/16 05:12:26;;;;;;;0.00;0.00;;;1.30;94.00;;;;;;4161514;28;20137;-57
2022/01/16 05:17:29;;;;;;;0.00;0.00;;;0.90;93.90;;;;;;4162197;28;20045;-60
2022/01/16 05:19:52;;;;;;;0.00;0.00;;;0.80;94.10;;;;;;4176150;28;20643;-53
2022/01/16 05:22:14;;;;;;;0.00;0.00;;;0.80;94.20;;;;;;4161636;28;20041;-60
2022/01/16 05:24:36;;;;;;;0.00;0.00;;;0.90;94.10;;;;;;4162208;28;20052;-58
2022/01/16 05:26:59;;;;;;;0.00;0.00;;;0.90;94.00;;;;;;4155440;28;20076;-57
2022/01/16 05:29:21;;;;;;;0.00;0.00;;;0.80;93.80;;;;;;4145597;28;20057;-59
2022/01/16 05:31:46;;;;;;;0.00;0.00;;;0.80;94.00;;;;;;4163252;28;20481;-59
2022/01/16 05:34:08;;;;;;;0.00;0.00;;;0.90;94.00;;;;;;4178466;28;20095;-57
2022/01/16 05:36:31;;;;;;;0.00;0.00;;;0.80;94.00;;;;;;4178002;28;20098;-55
2022/01/16 05:38:54;;;;;;;0.00;0.00;;;0.80;94.00;;;;;;4192546;28;20461;-54
2022/01/16 05:41:18;;;;;;;0.00;0.00;;;0.70;94.00;;;;;;4187063;28;20059;-55
2022/01/16 05:43:40;;;;;;;0.00;0.00;;;0.80;94.30;;;;;;4194927;28;20083;-53
2022/01/16 05:46:03;;;;;;;0.00;0.00;;;0.90;94.20;;;;;;4195019;28;20476;-54
2022/01/16 05:48:28;;;;;;;0.00;0.00;;;1.00;94.20;;;;;;4194255;28;20059;-54
2022/01/16 05:50:51;;;;;;;0.00;0.00;;;1.10;94.10;;;;;;4194631;28;20082;-52
2022/01/16 05:53:14;;;;;;;0.00;0.00;;;1.20;94.00;;;;;;4194690;28;20050;-53
2022/01/16 05:55:36;;;;;;;0.00;0.00;;;1.30;94.00;;;;;;4194615;28;20132;-59
2022/01/16 05:57:59;;;;;;;0.00;0.00;;;1.30;93.90;;;;;;4208750;28;20413;-58
2022/01/16 06:00:24;;;;;;;0.00;0.00;;;1.30;93.70;;;;;;4194259;28;20074;-59
2022/01/16 06:02:49;;;;;;;0.00;0.00;;;1.20;94.10;;;;;;4161143;28;20057;-59
2022/01/16 06:05:12;;;;;;;0.00;0.00;;;1.10;94.10;;;;;;4161706;28;20080;-53
2022/01/16 06:07:34;;;;;;;0.00;0.00;;;1.10;94.60;;;;;;4161341;28;20061;-59
2022/01/16 06:09:57;;;;;;;0.00;0.00;;;1.20;94.50;;;;;;4161457;28;20133;-59
2022/01/16 06:12:20;;;;;;;0.00;0.00;;;1.30;94.20;;;;;;4161036;28;20155;-59
2022/01/16 06:14:42;;;;;;;0.00;0.00;;;1.30;94.30;;;;;;4175561;28;20800;-59
2022/01/16 06:17:04;;;;;;;0.00;0.00;;;1.30;94.40;;;;;;4175510;28;20053;-58
2022/01/16 06:19:27;;;;;;;0.00;0.00;;;1.30;94.50;;;;;;4161653;28;20068;-59
2022/01/16 06:21:49;;;;;;;0.00;0.00;;;1.40;94.50;;;;;;4161171;28;20053;-54
2022/01/16 06:24:12;;;;;;;0.00;0.00;;;1.30;94.20;;;;;;4175005;28;20056;-49
2022/01/16 06:26:35;;;;;;;0.00;0.00;;;1.30;94.40;;;;;;4161469;28;20033;-53
2022/01/16 06:28:58;;;;;;;0.00;0.00;;;1.20;94.50;;;;;;4161412;28;20056;-56
2022/01/16 06:31:20;;;;;;;0.00;0.00;;;1.20;94.60;;;;;;4165123;28;20144;-58
2022/01/16 06:33:43;;;;;;;0.00;0.00;;;1.10;94.80;;;;;;4191626;28;20067;-52
2022/01/16 06:36:05;;;;;;;0.00;0.00;;;1.20;95.30;;;;;;4177635;28;20052;-53
2022/01/16 06:38:28;;;;;;;0.00;0.00;;;1.30;95.00;;;;;;4175118;28;20566;-53
2022/01/16 06:40:50;;;;;;;0.00;0.00;;;1.50;94.90;;;;;;4168580;28;20131;-53
2022/01/16 06:43:12;;;;;;;0.00;0.00;;;1.50;94.50;;;;;;4209179;28;20067;-57
2022/01/16 06:45:35;;;;;;;0.00;0.00;;;1.50;94.70;;;;;;4180925;28;20088;-55
2022/01/16 06:47:57;;;;;;;0.00;0.00;;;1.50;94.40;;;;;;4166000;28;20095;-58
2022/01/16 06:50:20;;;;;;;0.00;0.00;;;1.40;94.40;;;;;;4164320;28;20140;-54
2022/01/16 06:52:42;;;;;;;0.00;0.00;;;1.20;94.60;;;;;;4150902;28;20045;-59
2022/01/16 06:55:06;;;;;;;0.00;0.00;;;1.10;94.70;;;;;;4164347;28;20049;-53
2022/01/16 06:57:28;;;;;;;0.00;0.00;;;1.20;95.00;;;;;;4150570;28;20050;-50
2022/01/16 06:59:51;;;;;;;0.00;0.00;;;1.00;94.70;;;;;;4177893;28;20072;-51
2022/01/16 07:02:13;;;;;;;0.00;0.00;;;1.00;95.10;;;;;;4163922;28;20053;-56
2022/01/16 07:04:35;;;;;;;0.00;0.00;;;1.10;95.30;;;;;;4180885;28;20087;-53
2022/01/16 07:06:58;;;;;;;0.00;0.00;;;1.20;95.10;;;;;;4180647;28;20045;-51
2022/01/16 07:09:20;;;;;;;0.00;0.00;;;1.30;94.90;;;;;;4180429;28;20124;-60
2022/01/16 07:11:43;;;;;;;0.00;0.00;;;1.40;94.60;;;;;;4167827;28;20041;-60
2022/01/16 07:14:05;;;;;;;0.00;0.00;;;1.30;94.40;;;;;;4177906;28;20107;-60
2022/01/16 07:16:27;;;;;;;0.00;0.00;;;1.20;94.50;;;;;;4179984;28;20073;-59
2022/01/16 07:18:50;;;;;;;0.00;0.00;;;1.10;94.60;;;;;;4175303;28;20128;-50
2022/01/16 07:21:15;;;;;;;0.00;0.00;;;1.00;94.70;;;;;;4177647;28;20453;-59
2022/01/16 07:23:38;;;;;;;0.00;0.00;;;1.00;94.80;;;;;;4177592;28;20415;-57
2022/01/16 07:26:00;;;;;;;0.00;0.00;;;1.00;94.90;;;;;;4176987;28;20051;-59
2022/01/16 07:28:23;;;;;;;0.00;0.00;;;1.00;94.90;;;;;;4162013;28;20049;-60
2022/01/16 07:30:45;;;;;;;0.00;0.00;;;0.90;94.90;;;;;;4185971;28;20418;-60
2022/01/16 07:33:08;;;;;;;0.00;0.00;;;1.00;95.10;;;;;;4180144;28;20053;-60
2022/01/16 07:35:31;;;;;;;0.00;0.00;;;1.10;95.10;;;;;;4193832;28;20123;-56
2022/01/16 07:38:01;;;;;;;0.00;0.00;;;1.10;94.90;;;;;;4180164;28;20136;-59
2022/01/16 07:40:27;;;;;;;0.00;0.00;;;1.00;94.90;;;;;;4177671;28;20063;-59
2022/01/16 07:42:51;;;;;;;0.00;0.00;;;0.90;95.00;;;;;;4163906;28;20454;-60
2022/01/16 07:45:13;;;;;;;0.00;0.00;;;0.70;94.90;;;;;;4163835;28;20037;-54
2022/01/16 07:47:35;;;;;;;0.00;0.00;;;0.50;95.10;;;;;;4163802;28;20108;-59
2022/01/16 07:49:58;;;;;;;0.00;0.00;;;0.40;95.30;;;;;;4177924;28;20056;-58
2022/01/16 07:52:40;;;;;;;0.00;0.00;;;0.30;95.30;;;;;;4156430;28;20055;-60
2022/01/16 07:55:03;;;;;;;0.00;0.00;;;0.40;95.60;;;;;;4194124;28;20044;-59
2022/01/16 07:57:25;;;;;;;0.00;0.00;;;0.40;95.50;;;;;;4180178;28;20577;-58
2022/01/16 07:59:47;;;;;;;0.00;0.00;;;0.40;95.40;;;;;;4180190;28;20040;-59
2022/01/16 08:02:10;;;;;;;0.00;0.00;;;0.50;95.30;;;;;;4166090;28;20144;-60
2022/01/16 08:04:34;;;;;;;0.00;0.00;;;0.40;95.30;;;;;;4179398;28;20052;-61
2022/01/16 08:06:56;;;;;;;0.00;0.00;;;0.70;95.40;;;;;;4193818;28;20036;-60
2022/01/16 08:09:18;;;;;;;0.00;0.00;;;0.80;95.20;;;;;;4179828;28;20041;-59
2022/01/16 08:11:41;;;;;;;0.00;0.00;;;0.80;94.80;;;;;;4165963;28;20088;-58
2022/01/16 08:14:03;;;;;;;0.00;0.00;;;0.60;94.90;;;;;;4164349;28;20050;-60
2022/01/16 08:16:26;;;;;;;0.00;0.00;;;0.60;95.00;;;;;;4152060;28;20045;-59
2022/01/16 08:18:49;;;;;;;0.00;0.00;;;0.70;95.00;;;;;;4174740;28;20063;-59
2022/01/16 08:21:11;;;;;;;0.00;0.00;;;0.70;94.80;;;;;;4176847;28;20053;-59
2022/01/16 08:23:33;;;;;;;0.00;0.00;;;0.70;95.00;;;;;;4183321;28;20045;-58
2022/01/16 08:25:56;;;;;;;0.00;0.00;;;0.70;95.00;;;;;;4193637;28;20451;-59
2022/01/16 08:28:18;;;;;;;0.00;0.00;;;0.70;94.70;;;;;;4193137;28;20068;-59
2022/01/16 08:30:42;;;;;;;0.00;0.00;;;0.60;94.70;;;;;;4179336;28;20041;-59
2022/01/16 08:33:04;;;;;;;0.00;0.00;;;0.60;94.90;;;;;;4171627;28;20084;-57
2022/01/16 08:35:27;;;;;;;0.00;0.00;;;0.50;94.80;;;;;;4162939;28;20092;-60
2022/01/16 08:37:49;;;;;;;0.00;0.00;;;0.50;94.80;;;;;;4162994;28;20116;-58
2022/01/16 08:40:13;;;;;;;0.00;0.00;;;0.50;94.80;;;;;;4162932;28;20077;-60
2022/01/16 08:42:36;;;;;;;0.00;0.00;;;0.50;94.70;;;;;;4179292;28;20045;-60
2022/01/16 08:44:59;;;;;;;0.00;0.00;;;0.50;94.70;;;;;;4179491;28;20539;-57
2022/01/16 08:47:22;;;;;;;0.00;0.00;;;0.50;94.80;;;;;;4192967;28;20052;-56
2022/01/16 08:49:45;;;;;;;0.00;0.00;;;0.50;95.00;;;;;;4179501;28;20510;-56
2022/01/16 08:52:08;;;;;;;0.00;0.00;;;0.40;95.00;;;;;;4178863;28;20143;-60
2022/01/16 08:54:30;;;;;;;0.00;0.00;;;0.50;95.20;;;;;;4178708;28;20095;-60
2022/01/16 08:56:53;;;;;;;0.00;0.00;;;0.60;95.20;;;;;;4179130;28;20551;-58
2022/01/16 08:59:15;;;;;;;0.00;0.00;;;0.80;95.20;;;;;;4192872;28;20160;-58
2022/01/16 09:01:37;;;;;;;0.00;0.00;;;1.00;95.10;;;;;;4178924;28;20049;-59
2022/01/16 09:04:00;;;;;;;0.00;0.00;;;1.20;94.90;;;;;;4178553;28;20064;-59
2022/01/16 09:06:22;;;;;;;0.00;0.00;;;1.30;94.90;;;;;;4192545;28;20090;-59
2022/01/16 09:08:46;;;;;;;0.00;0.00;;;1.40;94.70;;;;;;4165377;28;20518;-57
2022/01/16 09:11:08;;;;;;;0.00;0.00;;;1.30;94.50;;;;;;4178661;28;20129;-59
2022/01/16 09:13:31;;;;;;;0.00;0.00;;;1.40;94.70;;;;;;4178917;28;20415;-58
2022/01/16 09:15:53;;;;;;;0.00;0.00;;;1.20;94.50;;;;;;4178853;28;20073;-59
2022/01/16 09:18:17;;;;;;;0.00;0.00;;;1.20;95.20;;;;;;4178327;28;20048;-57
2022/01/16 09:20:40;;;;;;;0.00;0.00;;;1.50;95.30;;;;;;4192422;28;20567;-60
2022/01/16 09:23:03;;;;;;;0.00;0.00;;;1.60;95.10;;;;;;4178514;28;20103;-59
2022/01/16 09:25:26;;;;;;;0.00;0.00;;;1.60;94.60;;;;;;4178680;28;20502;-59
2022/01/16 09:27:49;;;;;;;0.00;0.00;;;1.70;94.90;;;;;;4178721;28;20076;-59
2022/01/16 09:30:14;;;;;;;0.00;0.00;;;1.80;94.70;;;;;;4178430;28;20052;-59
2022/01/16 09:32:37;;;;;;;0.00;0.00;;;2.00;95.00;;;;;;4192673;28;20402;-57
2022/01/16 09:35:04;;;;;;;0.00;0.00;;;2.10;94.60;;;;;;4175808;28;20041;-58
2022/01/16 09:37:28;;;;;;;0.00;0.00;;;1.80;93.70;;;;;;4162124;28;20475;-55
2022/01/16 09:39:52;;;;;;;0.00;0.00;;;1.90;94.70;;;;;;4161933;28;20091;-56
2022/01/16 09:42:15;;;;;;;0.00;0.00;;;1.90;94.50;;;;;;4161582;28;20049;-60
2022/01/16 09:44:39;;;;;;;0.00;0.00;;;1.90;94.60;;;;;;4162021;28;20037;-58
2022/01/16 09:47:01;;;;;;;0.00;0.00;;;2.10;94.50;;;;;;4161961;28;20088;-58
2022/01/16 09:49:24;;;;;;;0.00;0.00;;;1.90;93.90;;;;;;4162050;28;20104;-58
2022/01/16 09:51:46;;;;;;;0.00;0.00;;;2.10;94.40;;;;;;4161751;28;20046;-59
2022/01/16 09:54:10;;;;;;;0.00;0.00;;;2.10;94.20;;;;;;4189647;28;20076;-59
2022/01/16 09:56:32;;;;;;;0.00;0.00;;;2.10;94.30;;;;;;4161498;28;20042;-59
2022/01/16 09:59:00;;;;;;;0.00;0.00;;;2.30;94.00;;;;;;4161851;28;20103;-59
2022/01/16 10:01:22;;;;;;;0.00;0.00;;;2.50;93.80;;;;;;4189142;28;20041;-56
2022/01/16 10:03:46;;;;;;;0.00;0.00;;;2.90;93.80;;;;;;4161691;28;20071;-59
2022/01/16 10:06:12;;;;;;;0.00;0.00;;;3.40;93.60;;;;;;4161822;28;20054;-52
2022/01/16 10:08:34;;;;;;;0.00;0.00;;;4.20;93.60;;;;;;4161356;28;20104;-53
2022/01/16 10:10:58;;;;;;;0.00;0.00;;;4.90;92.90;;;;;;4189170;28;20131;-56
2022/01/16 10:13:32;;;;;;;0.00;0.00;;;5.50;92.70;;;;;;4161939;28;20075;-53
2022/01/16 10:15:57;;;;;;;0.00;0.00;;;6.30;91.90;;;;;;4164182;28;20053;-55
2022/01/16 10:18:40;;;;;;;0.00;0.00;;;6.90;91.30;;;;;;4165015;28;20053;-50
2022/01/16 10:21:03;;;;;;;0.00;0.00;;;7.50;88.60;;;;;;4165008;28;20420;-54
2022/01/16 10:23:26;;;;;;;0.00;0.00;;;7.80;86.90;;;;;;4165143;28;20045;-48
2022/01/16 10:25:49;;;;;;;0.00;0.00;;;8.10;86.10;;;;;;4192994;28;20478;-50
2022/01/16 10:28:18;;;;;;;0.00;0.00;;;8.30;83.20;;;;;;4150963;28;20060;-52
2022/01/16 10:30:43;;;;;;;0.00;0.00;;;8.70;81.10;;;;;;4164706;28;20124;-55
2022/01/16 10:33:33;;;;;;;0.00;0.00;;;8.50;79.50;;;;;;4163564;28;20061;-50
2022/01/16 10:35:56;;;;;;;0.00;0.00;;;9.20;78.40;;;;;;4163784;28;20049;-50
2022/01/16 10:38:30;;;;;;;0.00;0.00;;;8.90;77.50;;;;;;4164442;28;20046;-50
2022/01/16 10:40:55;;;;;;;0.00;0.00;;;9.40;78.00;;;;;;4164701;28;20117;-57
2022/01/16 10:43:21;;;;;;;0.00;0.00;;;9.80;74.60;;;;;;4164936;28;20688;-52
2022/01/16 10:45:45;;;;;;;0.00;0.00;;;10.20;75.40;;;;;;4192557;28;20123;-53
2022/01/16 10:48:08;;;;;;;0.00;0.00;;;10.70;72.80;;;;;;4165013;28;20133;-52
2022/01/16 10:50:40;;;;;;;0.00;0.00;;;10.30;69.30;;;;;;4164134;28;20048;-58
2022/01/16 10:53:11;;;;;;;0.00;0.00;;;10.60;70.80;;;;;;4178635;28;20053;-54
2022/01/16 10:55:48;;;;;;;0.00;0.00;;;11.30;70.00;;;;;;4164844;28;20057;-60
2022/01/16 10:58:14;;;;;;;0.00;0.00;;;11.50;67.30;;;;;;4164621;28;20049;-59
2022/01/16 11:00:38;;;;;;;0.00;0.00;;;12.20;65.70;;;;;;4150116;28;20501;-54
2022/01/16 11:03:05;;;;;;;0.00;0.00;;;12.10;63.80;;;;;;4178606;28;20049;-54
2022/01/16 11:05:31;;;;;;;0.00;0.00;;;12.00;61.70;;;;;;4164608;28;20557;-55
2022/01/16 11:08:01;;;;;;;0.00;0.00;;;11.70;61.70;;;;;;4165425;28;20428;-56
2022/01/16 11:10:35;;;;;;;0.00;0.00;;;11.80;61.30;;;;;;4164985;28;20115;-53
2022/01/16 11:13:01;;;;;;;0.00;0.00;;;12.10;59.90;;;;;;4165166;28;20049;-57
2022/01/16 11:15:24;;;;;;;0.00;0.00;;;12.40;59.40;;;;;;4164683;28;20140;-56
2022/01/16 11:17:47;;;;;;;0.00;0.00;;;12.70;58.20;;;;;;4164790;28;20053;-51
2022/01/16 11:20:10;;;;;;;0.00;0.00;;;12.60;58.00;;;;;;4164841;28;20107;-58
2022/01/16 11:22:45;;;;;;;0.00;0.00;;;12.60;57.00;;;;;;4150300;28;20101;-52
2022/01/16 11:25:23;;;;;;;0.00;0.00;;;12.70;58.30;;;;;;4164260;28;20052;-54
2022/01/16 11:27:46;;;;;;;0.00;0.00;;;13.80;57.10;;;;;;4164312;28;20041;-58
2022/01/16 11:30:09;;;;;;;0.00;0.00;;;14.80;54.30;;;;;;4164343;28;20069;-53
2022/01/16 11:32:32;;;;;;;0.00;0.00;;;15.10;51.90;;;;;;4163338;28;20566;-55
2022/01/16 11:34:57;;;;;;;0.00;0.00;;;14.70;51.50;;;;;;4164264;28;20053;-58
2022/01/16 11:37:19;;;;;;;0.00;0.00;;;14.70;51.20;;;;;;4164116;28;20046;-57
2022/01/16 11:39:42;;;;;;;0.00;0.00;;;15.00;51.10;;;;;;4164104;28;20058;-55
2022/01/16 11:42:14;;;;;;;0.00;0.00;;;14.70;50.10;;;;;;4163850;28;20103;-57
2022/01/16 11:44:37;;;;;;;0.00;0.00;;;13.70;49.10;;;;;;4163597;28;20045;-56
2022/01/16 11:47:03;;;;;;;0.00;0.00;;;12.50;51.00;;;;;;4164055;28;20048;-54
2022/01/16 11:49:34;;;;;;;0.00;0.00;;;11.50;53.00;;;;;;4163902;28;20051;-53
2022/01/16 11:52:03;;;;;;;0.00;0.00;;;10.80;55.20;;;;;;4163652;28;20579;-52
2022/01/16 11:54:30;;;;;;;0.00;0.00;;;10.10;57.20;;;;;;4163555;28;20037;-58
2022/01/16 11:56:56;;;;;;;0.00;0.00;;;8.70;61.00;;;;;;4163740;28;20053;-56
2022/01/16 11:59:23;;;;;;;0.00;0.00;;;7.80;64.70;;;;;;4163717;28;20116;-55
2022/01/16 12:01:58;;;;;;;0.00;0.00;;;7.50;66.10;;;;;;4163432;28;20502;-55
2022/01/16 12:04:29;;;;;;;0.00;0.00;;;7.00;67.90;;;;;;4163276;28;20077;-58
2022/01/16 12:06:51;;;;;;;;;;;6.80;69.40;;;;;;4164191;28;20044;-57
2022/01/16 12:11:59;;;;;;;0.00;0.00;;;6.40;71.70;;;;;;4148841;28;20076;-53
2022/01/16 12:15:01;;;;;;;0.00;0.00;;;6.00;73.00;;;;;;4163037;28;20045;-57
2022/01/16 12:17:31;;;;;;;0.00;0.00;;;5.90;74.60;;;;;;4163591;28;20073;-59
2022/01/16 12:19:55;;;;;;;0.00;0.00;;;5.70;75.90;;;;;;4163764;28;20555;-57
2022/01/16 12:22:40;;;;;;;0.00;0.00;;;5.60;76.40;;;;;;4163033;28;20525;-52
2022/01/16 12:25:04;;;;;;;0.00;0.00;;;5.70;76.60;;;;;;4163542;28;20708;-56
2022/01/16 12:27:44;;;;;;;0.00;0.00;;;5.80;76.60;;;;;;4163351;28;20100;-56
2022/01/16 12:30:35;;;;;;;0.00;0.00;;;5.90;76.70;;;;;;4163201;28;20045;-56
2022/01/16 12:33:09;;;;;;;0.00;0.00;;;5.90;76.70;;;;;;4162713;28;20525;-55
2022/01/16 12:35:50;;;;;;;0.00;0.00;;;5.80;76.90;;;;;;4163342;28;20128;-52
2022/01/16 12:38:33;;;;;;;0.00;0.00;;;5.60;77.60;;;;;;4189624;28;20158;-57
2022/01/16 12:41:08;;;;;;;0.00;0.00;;;5.60;78.70;;;;;;4190582;28;20098;-58
2022/01/16 12:43:39;;;;;;;0.00;0.00;;;5.60;78.90;;;;;;4162941;28;20046;-58
2022/01/16 12:46:04;;;;;;;0.00;0.00;;;5.60;79.80;;;;;;4163038;28;20128;-54
2022/01/16 12:48:28;;;;;;;0.00;0.00;;;5.60;80.70;;;;;;4162476;28;20398;-49
2022/01/16 12:51:02;;;;;;;0.00;0.00;;;5.40;80.80;;;;;;4190394;28;20039;-56
2022/01/16 12:53:35;;;;;;;0.00;0.00;;;5.40;82.00;;;;;;4162795;28;20438;-58
2022/01/16 12:56:14;;;;;;;0.00;0.00;;;5.40;81.70;;;;;;4190744;28;20106;-59
2022/01/16 12:58:36;;;;;;;0.00;0.00;;;5.40;82.30;;;;;;4146242;28;20048;-53
2022/01/16 13:01:04;;;;;;;0.00;0.00;;;5.10;83.40;;;;;;4146122;28;20132;-57
2022/01/16 13:03:29;;;;;;;0.00;0.00;;;4.90;84.50;;;;;;4146427;28;20096;-54
2022/01/16 13:06:14;;;;;;;0.00;0.00;;;4.60;85.50;;;;;;4160202;28;20054;-56
2022/01/16 13:09:02;;;;;;;0.00;0.00;;;4.40;86.10;;;;;;4162213;28;20430;-56
2022/01/16 13:11:31;;;;;;;0.00;0.00;;;4.30;86.80;;;;;;4162439;28;20049;-57
2022/01/16 13:13:53;;;;;;;0.00;0.00;;;4.30;87.00;;;;;;4162652;28;20099;-57
2022/01/16 13:16:23;;;;;;;0.00;0.00;;;4.40;87.00;;;;;;4162196;28;20053;-53
2022/01/16 13:19:16;;;;;;;0.00;0.00;;;4.50;86.90;;;;;;4176367;28;20040;-58
2022/01/16 13:21:56;;;;;;;0.00;0.00;;;4.70;86.40;;;;;;4162284;28;20096;-58
2022/01/16 13:24:27;;;;;;;0.00;0.00;;;4.60;86.20;;;;;;4160950;28;20045;-58
2022/01/16 13:26:50;;;;;;;0.00;0.00;;;4.50;86.80;;;;;;4146078;28;20114;-57